sensor_id;sensor_type;location;lat;lon;timestamp;temperature;humidity
14049;DHT22;7099;53.922;10.728;2022-10-16T00:03:32;15.60;99.90
14049;DHT22;7099;53.922;10.728;2022-10-16T00:07:58;15.60;99.90
14049;DHT22;7099;53.922;10.728;2022-10-16T00:12:23;15.50;99.90
14049;DHT22;7099;53.922;10.728;2022-10-16T00:16:49;15.50;99.90
14049;DHT22;7099;53.922;10.728;2022-10-16T00:21:17;15.50;99.90
14049;DHT22;7099;53.922;10.728;2022-10-16T00:25:44;15.50;99.90
14049;DHT22;7099;53.922;10.728;2022-10-16T00:30:09;15.40;99.90
14049;DHT22;7099;53.922;10.728;2022-10-16T00:34:35;15.40;99.90
14049;DHT22;7099;53.922;10.728;2022-10-16T00:39:01;15.40;99.90
14049;DHT22;7099;53.922;10.728;2022-10-16T00:48:00;15.30;99.90
14049;DHT22;7099;53.922;10.728;2022-10-16T00:52:25;15.30;99.90
14049;DHT22;7099;53.922;10.728;2022-10-16T00:56:53;15.20;99.90
14049;DHT22;7099;53.922;10.728;2022-10-16T01:01:19;15.20;99.90
14049;DHT22;7099;53.922;10.728;2022-10-16T01:05:53;15.10;99.90
14049;DHT22;7099;53.922;10.728;2022-10-16T01:20:30;15.10;99.90
14049;DHT22;7099;53.922;10.728;2022-10-16T01:25:00;15.00;99.90
14049;DHT22;7099;53.922;10.728;2022-10-16T01:29:37;15.00;99.90
14049;DHT22;7099;53.922;10.728;2022-10-16T01:34:09;14.90;99.90
14049;DHT22;7099;53.922;10.728;2022-10-16T01:38:39;14.90;99.90
14049;DHT22;7099;53.922;10.728;2022-10-16T01:43:12;14.80;99.90
14049;DHT22;7099;53.922;10.728;2022-10-16T01:47:49;14.80;99.90
14049;DHT22;7099;53.922;10.728;2022-10-16T01:52:21;14.70;99.90
14049;DHT22;7099;53.922;10.728;2022-10-16T01:56:49;14.70;99.90
14049;DHT22;7099;53.922;10.728;2022-10-16T02:01:17;14.70;99.90
14049;DHT22;7099;53.922;10.728;2022-10-16T02:05:54;14.70;99.90
14049;DHT22;7099;53.922;10.728;2022-10-16T02:10:21;14.70;99.90
14049;DHT22;7099;53.922;10.728;2022-10-16T02:14:47;14.60;99.90
14049;DHT22;7099;53.922;10.728;2022-10-16T02:19:13;14.60;99.90
14049;DHT22;7099;53.922;10.728;2022-10-16T02:23:55;14.50;99.90
14049;DHT22;7099;53.922;10.728;2022-10-16T02:28:38;14.50;99.90
14049;DHT22;7099;53.922;10.728;2022-10-16T02:33:09;14.40;99.90
14049;DHT22;7099;53.922;10.728;2022-10-16T02:37:36;14.40;99.90
14049;DHT22;7099;53.922;10.728;2022-10-16T02:42:02;14.30;99.90
14049;DHT22;7099;53.922;10.728;2022-10-16T02:46:27;14.30;99.90
14049;DHT22;7099;53.922;10.728;2022-10-16T02:50:52;14.30;99.90
14049;DHT22;7099;53.922;10.728;2022-10-16T02:55:18;14.30;99.90
14049;DHT22;7099;53.922;10.728;2022-10-16T02:59:44;14.20;99.90
14049;DHT22;7099;53.922;10.728;2022-10-16T03:04:09;14.20;99.90
14049;DHT22;7099;53.922;10.728;2022-10-16T03:08:34;14.20;99.90
14049;DHT22;7099;53.922;10.728;2022-10-16T03:12:59;14.10;99.90
14049;DHT22;7099;53.922;10.728;2022-10-16T03:17:25;14.10;99.90
14049;DHT22;7099;53.922;10.728;2022-10-16T03:21:50;14.00;99.90
14049;DHT22;7099;53.922;10.728;2022-10-16T03:26:15;14.00;99.90
14049;DHT22;7099;53.922;10.728;2022-10-16T03:30:40;13.90;99.90
14049;DHT22;7099;53.922;10.728;2022-10-16T03:35:06;13.90;99.90
14049;DHT22;7099;53.922;10.728;2022-10-16T03:39:31;13.90;99.90
14049;DHT22;7099;53.922;10.728;2022-10-16T03:43:56;13.80;99.90
14049;DHT22;7099;53.922;10.728;2022-10-16T03:48:21;13.70;99.90
14049;DHT22;7099;53.922;10.728;2022-10-16T03:52:46;13.80;99.90
14049;DHT22;7099;53.922;10.728;2022-10-16T03:57:12;13.70;99.90
14049;DHT22;7099;53.922;10.728;2022-10-16T04:01:37;13.70;99.90
14049;DHT22;7099;53.922;10.728;2022-10-16T04:06:02;13.70;99.90
14049;DHT22;7099;53.922;10.728;2022-10-16T04:10:27;13.60;99.90
14049;DHT22;7099;53.922;10.728;2022-10-16T04:14:52;13.60;99.90
14049;DHT22;7099;53.922;10.728;2022-10-16T04:19:17;13.60;99.90
14049;DHT22;7099;53.922;10.728;2022-10-16T04:23:43;13.50;99.90
14049;DHT22;7099;53.922;10.728;2022-10-16T04:28:08;13.50;99.90
14049;DHT22;7099;53.922;10.728;2022-10-16T04:32:33;13.50;99.90
14049;DHT22;7099;53.922;10.728;2022-10-16T04:36:58;13.50;99.90
14049;DHT22;7099;53.922;10.728;2022-10-16T04:41:23;13.50;99.90
14049;DHT22;7099;53.922;10.728;2022-10-16T04:45:48;13.50;99.90
14049;DHT22;7099;53.922;10.728;2022-10-16T04:50:15;13.40;99.90
14049;DHT22;7099;53.922;10.728;2022-10-16T04:54:40;13.40;99.90
14049;DHT22;7099;53.922;10.728;2022-10-16T04:59:06;13.40;99.90
14049;DHT22;7099;53.922;10.728;2022-10-16T05:03:31;13.30;99.90
14049;DHT22;7099;53.922;10.728;2022-10-16T05:07:56;13.30;99.90
14049;DHT22;7099;53.922;10.728;2022-10-16T05:12:21;13.30;99.90
14049;DHT22;7099;53.922;10.728;2022-10-16T05:16:47;13.30;99.90
14049;DHT22;7099;53.922;10.728;2022-10-16T05:21:12;13.20;99.90
14049;DHT22;7099;53.922;10.728;2022-10-16T05:25:38;13.30;99.90
14049;DHT22;7099;53.922;10.728;2022-10-16T05:30:03;13.20;99.90
14049;DHT22;7099;53.922;10.728;2022-10-16T05:34:32;13.20;99.90
14049;DHT22;7099;53.922;10.728;2022-10-16T05:38:57;13.20;99.90
14049;DHT22;7099;53.922;10.728;2022-10-16T05:43:22;13.10;99.90
14049;DHT22;7099;53.922;10.728;2022-10-16T05:47:47;13.10;99.90
14049;DHT22;7099;53.922;10.728;2022-10-16T05:52:12;13.10;99.90
14049;DHT22;7099;53.922;10.728;2022-10-16T05:56:37;13.10;99.90
14049;DHT22;7099;53.922;10.728;2022-10-16T06:01:04;13.00;99.90
14049;DHT22;7099;53.922;10.728;2022-10-16T06:05:32;12.90;99.90
14049;DHT22;7099;53.922;10.728;2022-10-16T06:09:57;12.90;99.90
14049;DHT22;7099;53.922;10.728;2022-10-16T06:14:22;12.90;99.90
14049;DHT22;7099;53.922;10.728;2022-10-16T06:18:48;12.90;99.90
14049;DHT22;7099;53.922;10.728;2022-10-16T06:23:15;13.00;99.90
14049;DHT22;7099;53.922;10.728;2022-10-16T06:27:41;13.00;99.90
14049;DHT22;7099;53.922;10.728;2022-10-16T06:32:06;13.00;99.90
14049;DHT22;7099;53.922;10.728;2022-10-16T06:36:31;13.00;99.90
14049;DHT22;7099;53.922;10.728;2022-10-16T06:40:57;13.10;99.90
14049;DHT22;7099;53.922;10.728;2022-10-16T06:45:22;13.10;99.90
14049;DHT22;7099;53.922;10.728;2022-10-16T06:49:47;13.10;99.90
14049;DHT22;7099;53.922;10.728;2022-10-16T06:54:18;13.10;99.90
14049;DHT22;7099;53.922;10.728;2022-10-16T06:58:44;13.20;99.90
14049;DHT22;7099;53.922;10.728;2022-10-16T07:03:09;13.20;99.90
14049;DHT22;7099;53.922;10.728;2022-10-16T07:07:34;13.30;99.90
14049;DHT22;7099;53.922;10.728;2022-10-16T07:12:00;13.30;99.90
14049;DHT22;7099;53.922;10.728;2022-10-16T07:16:27;13.30;99.90
14049;DHT22;7099;53.922;10.728;2022-10-16T07:20:53;13.40;99.90
14049;DHT22;7099;53.922;10.728;2022-10-16T07:25:18;13.50;99.90
14049;DHT22;7099;53.922;10.728;2022-10-16T07:29:43;13.50;99.90
14049;DHT22;7099;53.922;10.728;2022-10-16T07:34:10;13.60;99.90
14049;DHT22;7099;53.922;10.728;2022-10-16T07:38:37;13.70;99.90
14049;DHT22;7099;53.922;10.728;2022-10-16T07:43:03;13.80;99.90
14049;DHT22;7099;53.922;10.728;2022-10-16T07:47:30;14.00;99.90
14049;DHT22;7099;53.922;10.728;2022-10-16T07:51:55;14.20;99.90
14049;DHT22;7099;53.922;10.728;2022-10-16T07:56:21;14.40;99.90
14049;DHT22;7099;53.922;10.728;2022-10-16T08:00:47;14.50;99.90
14049;DHT22;7099;53.922;10.728;2022-10-16T08:05:12;14.70;99.90
14049;DHT22;7099;53.922;10.728;2022-10-16T08:09:37;14.80;99.90
14049;DHT22;7099;53.922;10.728;2022-10-16T08:14:03;15.00;99.90
14049;DHT22;7099;53.922;10.728;2022-10-16T08:18:28;15.10;99.90
14049;DHT22;7099;53.922;10.728;2022-10-16T08:22:53;15.20;99.90
14049;DHT22;7099;53.922;10.728;2022-10-16T08:27:19;15.30;99.90
14049;DHT22;7099;53.922;10.728;2022-10-16T08:31:44;15.30;99.90
14049;DHT22;7099;53.922;10.728;2022-10-16T08:36:10;15.30;99.90
14049;DHT22;7099;53.922;10.728;2022-10-16T08:40:36;15.40;99.90
14049;DHT22;7099;53.922;10.728;2022-10-16T08:49:42;15.70;99.90
14049;DHT22;7099;53.922;10.728;2022-10-16T08:58:57;15.80;99.90
14049;DHT22;7099;53.922;10.728;2022-10-16T09:09:55;15.90;99.90
14049;DHT22;7099;53.922;10.728;2022-10-16T09:13:52;16.00;99.90
14049;DHT22;7099;53.922;10.728;2022-10-16T09:18:44;16.10;99.90
14049;DHT22;7099;53.922;10.728;2022-10-16T09:23:50;16.20;99.90
14049;DHT22;7099;53.922;10.728;2022-10-16T09:28:17;16.30;99.90
14049;DHT22;7099;53.922;10.728;2022-10-16T09:32:45;16.50;99.90
14049;DHT22;7099;53.922;10.728;2022-10-16T09:37:16;16.50;99.90
14049;DHT22;7099;53.922;10.728;2022-10-16T09:41:44;16.70;99.90
14049;DHT22;7099;53.922;10.728;2022-10-16T09:46:25;16.80;99.90
14049;DHT22;7099;53.922;10.728;2022-10-16T09:51:03;16.90;99.90
14049;DHT22;7099;53.922;10.728;2022-10-16T09:55:29;16.90;99.90
14049;DHT22;7099;53.922;10.728;2022-10-16T09:59:56;17.00;99.90
14049;DHT22;7099;53.922;10.728;2022-10-16T10:04:22;17.10;99.90
14049;DHT22;7099;53.922;10.728;2022-10-16T10:08:59;17.30;99.90
14049;DHT22;7099;53.922;10.728;2022-10-16T10:13:31;17.40;99.90
14049;DHT22;7099;53.922;10.728;2022-10-16T10:17:57;17.50;99.90
14049;DHT22;7099;53.922;10.728;2022-10-16T10:27:07;17.60;99.90
14049;DHT22;7099;53.922;10.728;2022-10-16T10:46:02;18.10;99.90
14049;DHT22;7099;53.922;10.728;2022-10-16T10:55:43;18.30;99.90
14049;DHT22;7099;53.922;10.728;2022-10-16T11:05:20;18.60;99.90
14049;DHT22;7099;53.922;10.728;2022-10-16T11:09:51;18.70;99.90
14049;DHT22;7099;53.922;10.728;2022-10-16T11:24:21;19.00;99.90
14049;DHT22;7099;53.922;10.728;2022-10-16T11:28:51;19.10;99.90
14049;DHT22;7099;53.922;10.728;2022-10-16T11:33:59;19.10;99.90
14049;DHT22;7099;53.922;10.728;2022-10-16T11:48:27;19.50;99.90
14049;DHT22;7099;53.922;10.728;2022-10-16T11:57:28;19.50;99.90
14049;DHT22;7099;53.922;10.728;2022-10-16T12:20:38;19.10;99.90
14049;DHT22;7099;53.922;10.728;2022-10-16T12:25:29;18.90;99.90
14049;DHT22;7099;53.922;10.728;2022-10-16T12:30:06;19.10;99.90
14049;DHT22;7099;53.922;10.728;2022-10-16T12:34:38;19.20;99.90
14049;DHT22;7099;53.922;10.728;2022-10-16T12:39:05;19.30;99.90
14049;DHT22;7099;53.922;10.728;2022-10-16T12:43:42;19.40;99.90
14049;DHT22;7099;53.922;10.728;2022-10-16T12:48:21;19.40;99.90
14049;DHT22;7099;53.922;10.728;2022-10-16T12:52:57;19.50;99.90
14049;DHT22;7099;53.922;10.728;2022-10-16T13:07:09;19.30;99.90
14049;DHT22;7099;53.922;10.728;2022-10-16T13:16:47;19.20;99.90
14049;DHT22;7099;53.922;10.728;2022-10-16T13:21:22;19.30;99.90
14049;DHT22;7099;53.922;10.728;2022-10-16T13:30:36;19.30;99.90
14049;DHT22;7099;53.922;10.728;2022-10-16T13:35:46;19.30;99.90
14049;DHT22;7099;53.922;10.728;2022-10-16T13:40:12;19.30;99.90
14049;DHT22;7099;53.922;10.728;2022-10-16T13:44:44;19.40;99.90
14049;DHT22;7099;53.922;10.728;2022-10-16T13:49:15;19.50;99.90
14049;DHT22;7099;53.922;10.728;2022-10-16T13:53:41;19.60;99.90
14049;DHT22;7099;53.922;10.728;2022-10-16T13:58:16;19.60;99.90
14049;DHT22;7099;53.922;10.728;2022-10-16T14:02:41;19.50;99.90
14049;DHT22;7099;53.922;10.728;2022-10-16T14:07:11;19.30;99.90
14049;DHT22;7099;53.922;10.728;2022-10-16T14:11:46;19.10;99.90
14049;DHT22;7099;53.922;10.728;2022-10-16T14:16:18;18.90;99.90
14049;DHT22;7099;53.922;10.728;2022-10-16T14:20:45;19.00;99.90
14049;DHT22;7099;53.922;10.728;2022-10-16T14:29:44;19.10;99.90
14049;DHT22;7099;53.922;10.728;2022-10-16T14:39:14;19.30;99.90
14049;DHT22;7099;53.922;10.728;2022-10-16T14:43:43;19.20;99.90
14049;DHT22;7099;53.922;10.728;2022-10-16T14:48:16;19.00;99.90
14049;DHT22;7099;53.922;10.728;2022-10-16T14:52:43;18.80;99.90
14049;DHT22;7099;53.922;10.728;2022-10-16T14:57:19;18.80;99.90
14049;DHT22;7099;53.922;10.728;2022-10-16T15:01:46;18.90;99.90
14049;DHT22;7099;53.922;10.728;2022-10-16T15:06:13;18.80;99.90
14049;DHT22;7099;53.922;10.728;2022-10-16T15:10:40;18.70;99.90
14049;DHT22;7099;53.922;10.728;2022-10-16T15:15:21;18.80;99.90
14049;DHT22;7099;53.922;10.728;2022-10-16T15:19:48;18.80;99.90
14049;DHT22;7099;53.922;10.728;2022-10-16T15:24:13;18.70;99.90
14049;DHT22;7099;53.922;10.728;2022-10-16T15:28:44;18.70;99.90
14049;DHT22;7099;53.922;10.728;2022-10-16T15:33:11;18.60;99.90
14049;DHT22;7099;53.922;10.728;2022-10-16T15:37:38;18.50;99.90
14049;DHT22;7099;53.922;10.728;2022-10-16T15:42:03;18.40;99.90
14049;DHT22;7099;53.922;10.728;2022-10-16T15:46:30;18.30;99.90
14049;DHT22;7099;53.922;10.728;2022-10-16T15:50:55;18.20;99.90
14049;DHT22;7099;53.922;10.728;2022-10-16T15:55:21;18.10;99.90
14049;DHT22;7099;53.922;10.728;2022-10-16T15:59:46;18.00;99.90
14049;DHT22;7099;53.922;10.728;2022-10-16T16:04:11;17.90;99.90
14049;DHT22;7099;53.922;10.728;2022-10-16T16:08:57;17.80;99.90
14049;DHT22;7099;53.922;10.728;2022-10-16T16:13:24;17.70;99.90
14049;DHT22;7099;53.922;10.728;2022-10-16T16:17:49;17.60;99.90
14049;DHT22;7099;53.922;10.728;2022-10-16T16:22:14;17.40;99.90
14049;DHT22;7099;53.922;10.728;2022-10-16T16:26:39;17.30;99.90
14049;DHT22;7099;53.922;10.728;2022-10-16T16:31:08;17.20;99.90
14049;DHT22;7099;53.922;10.728;2022-10-16T16:35:33;17.10;99.90
14049;DHT22;7099;53.922;10.728;2022-10-16T16:39:58;17.00;99.90
14049;DHT22;7099;53.922;10.728;2022-10-16T16:44:24;16.90;99.90
14049;DHT22;7099;53.922;10.728;2022-10-16T16:48:50;16.80;99.90
14049;DHT22;7099;53.922;10.728;2022-10-16T16:53:16;16.70;99.90
14049;DHT22;7099;53.922;10.728;2022-10-16T16:57:41;16.60;99.90
14049;DHT22;7099;53.922;10.728;2022-10-16T17:02:08;16.50;99.90
14049;DHT22;7099;53.922;10.728;2022-10-16T17:06:34;16.40;99.90
14049;DHT22;7099;53.922;10.728;2022-10-16T17:10:59;16.20;99.90
14049;DHT22;7099;53.922;10.728;2022-10-16T17:15:24;16.10;99.90
14049;DHT22;7099;53.922;10.728;2022-10-16T17:19:50;15.90;99.90
14049;DHT22;7099;53.922;10.728;2022-10-16T17:24:15;15.80;99.90
14049;DHT22;7099;53.922;10.728;2022-10-16T17:28:42;15.70;99.90
14049;DHT22;7099;53.922;10.728;2022-10-16T17:33:09;15.50;99.90
14049;DHT22;7099;53.922;10.728;2022-10-16T17:37:35;15.40;99.90
14049;DHT22;7099;53.922;10.728;2022-10-16T17:42:01;15.30;99.90
14049;DHT22;7099;53.922;10.728;2022-10-16T17:46:26;15.20;99.90
14049;DHT22;7099;53.922;10.728;2022-10-16T17:50:53;15.00;99.90
14049;DHT22;7099;53.922;10.728;2022-10-16T17:55:18;14.90;99.90
14049;DHT22;7099;53.922;10.728;2022-10-16T17:59:52;14.80;99.90
14049;DHT22;7099;53.922;10.728;2022-10-16T18:04:18;14.70;99.90
14049;DHT22;7099;53.922;10.728;2022-10-16T18:08:44;14.60;99.90
14049;DHT22;7099;53.922;10.728;2022-10-16T18:13:09;14.50;99.90
14049;DHT22;7099;53.922;10.728;2022-10-16T18:17:34;14.40;99.90
14049;DHT22;7099;53.922;10.728;2022-10-16T18:22:02;14.30;99.90
14049;DHT22;7099;53.922;10.728;2022-10-16T18:26:28;14.10;99.90
14049;DHT22;7099;53.922;10.728;2022-10-16T18:30:58;14.10;99.90
14049;DHT22;7099;53.922;10.728;2022-10-16T18:35:24;14.00;99.90
14049;DHT22;7099;53.922;10.728;2022-10-16T18:39:50;13.90;99.90
14049;DHT22;7099;53.922;10.728;2022-10-16T18:44:15;13.80;99.90
14049;DHT22;7099;53.922;10.728;2022-10-16T18:48:40;13.70;99.90
14049;DHT22;7099;53.922;10.728;2022-10-16T18:53:06;13.60;99.90
14049;DHT22;7099;53.922;10.728;2022-10-16T18:57:32;13.50;99.90
14049;DHT22;7099;53.922;10.728;2022-10-16T19:01:57;13.40;99.90
14049;DHT22;7099;53.922;10.728;2022-10-16T19:06:24;13.30;99.90
14049;DHT22;7099;53.922;10.728;2022-10-16T19:10:50;13.20;99.90
14049;DHT22;7099;53.922;10.728;2022-10-16T19:15:15;13.10;99.90
14049;DHT22;7099;53.922;10.728;2022-10-16T19:19:40;13.00;99.90
14049;DHT22;7099;53.922;10.728;2022-10-16T19:24:07;13.00;99.90
14049;DHT22;7099;53.922;10.728;2022-10-16T19:28:34;12.90;99.90
14049;DHT22;7099;53.922;10.728;2022-10-16T19:33:01;12.80;99.90
14049;DHT22;7099;53.922;10.728;2022-10-16T19:37:26;12.70;99.90
14049;DHT22;7099;53.922;10.728;2022-10-16T19:41:51;12.70;99.90
14049;DHT22;7099;53.922;10.728;2022-10-16T19:46:19;12.50;99.90
14049;DHT22;7099;53.922;10.728;2022-10-16T19:50:48;12.50;99.90
14049;DHT22;7099;53.922;10.728;2022-10-16T19:55:13;12.40;99.90
14049;DHT22;7099;53.922;10.728;2022-10-16T19:59:38;12.40;99.90
14049;DHT22;7099;53.922;10.728;2022-10-16T20:04:10;12.30;99.90
14049;DHT22;7099;53.922;10.728;2022-10-16T20:08:37;12.20;99.90
14049;DHT22;7099;53.922;10.728;2022-10-16T20:13:05;12.10;99.90
14049;DHT22;7099;53.922;10.728;2022-10-16T20:17:32;12.10;99.90
14049;DHT22;7099;53.922;10.728;2022-10-16T20:21:58;12.00;99.90
14049;DHT22;7099;53.922;10.728;2022-10-16T20:26:24;12.00;99.90
14049;DHT22;7099;53.922;10.728;2022-10-16T20:30:49;11.90;99.90
14049;DHT22;7099;53.922;10.728;2022-10-16T20:35:14;11.90;99.90
14049;DHT22;7099;53.922;10.728;2022-10-16T20:39:40;11.80;99.90
14049;DHT22;7099;53.922;10.728;2022-10-16T20:44:05;11.80;99.90
14049;DHT22;7099;53.922;10.728;2022-10-16T20:48:30;11.70;99.90
14049;DHT22;7099;53.922;10.728;2022-10-16T20:52:56;11.70;99.90
14049;DHT22;7099;53.922;10.728;2022-10-16T20:57:22;11.60;99.90
14049;DHT22;7099;53.922;10.728;2022-10-16T21:01:47;11.60;99.90
14049;DHT22;7099;53.922;10.728;2022-10-16T21:06:12;11.60;99.90
14049;DHT22;7099;53.922;10.728;2022-10-16T21:10:37;11.50;99.90
14049;DHT22;7099;53.922;10.728;2022-10-16T21:15:02;11.50;99.90
14049;DHT22;7099;53.922;10.728;2022-10-16T21:19:43;11.40;99.90
14049;DHT22;7099;53.922;10.728;2022-10-16T21:24:08;11.40;99.90
14049;DHT22;7099;53.922;10.728;2022-10-16T21:28:38;11.40;99.90
14049;DHT22;7099;53.922;10.728;2022-10-16T21:33:04;11.40;99.90
14049;DHT22;7099;53.922;10.728;2022-10-16T21:37:29;11.30;99.90
14049;DHT22;7099;53.922;10.728;2022-10-16T21:41:54;11.30;99.90
14049;DHT22;7099;53.922;10.728;2022-10-16T21:46:20;11.30;99.90
14049;DHT22;7099;53.922;10.728;2022-10-16T21:50:47;11.20;99.90
14049;DHT22;7099;53.922;10.728;2022-10-16T21:55:12;11.10;99.90
14049;DHT22;7099;53.922;10.728;2022-10-16T21:59:37;11.10;99.90
14049;DHT22;7099;53.922;10.728;2022-10-16T22:04:03;11.10;99.90
14049;DHT22;7099;53.922;10.728;2022-10-16T22:08:28;11.10;99.90
14049;DHT22;7099;53.922;10.728;2022-10-16T22:12:53;11.10;99.90
14049;DHT22;7099;53.922;10.728;2022-10-16T22:17:18;11.00;99.90
14049;DHT22;7099;53.922;10.728;2022-10-16T22:21:44;11.10;99.90
14049;DHT22;7099;53.922;10.728;2022-10-16T22:26:11;11.00;99.90
14049;DHT22;7099;53.922;10.728;2022-10-16T22:30:36;11.00;99.90
14049;DHT22;7099;53.922;10.728;2022-10-16T22:35:03;11.00;99.90
14049;DHT22;7099;53.922;10.728;2022-10-16T22:39:28;10.90;99.90
14049;DHT22;7099;53.922;10.728;2022-10-16T22:43:53;10.90;99.90
14049;DHT22;7099;53.922;10.728;2022-10-16T22:48:18;10.90;99.90
14049;DHT22;7099;53.922;10.728;2022-10-16T22:52:45;10.90;99.90
14049;DHT22;7099;53.922;10.728;2022-10-16T22:57:10;10.90;99.90
14049;DHT22;7099;53.922;10.728;2022-10-16T23:01:36;10.90;99.90
14049;DHT22;7099;53.922;10.728;2022-10-16T23:06:04;10.90;99.90
14049;DHT22;7099;53.922;10.728;2022-10-16T23:10:29;10.90;99.90
14049;DHT22;7099;53.922;10.728;2022-10-16T23:14:54;10.90;99.90
14049;DHT22;7099;53.922;10.728;2022-10-16T23:19:19;10.90;99.90
14049;DHT22;7099;53.922;10.728;2022-10-16T23:23:45;10.90;99.90
14049;DHT22;7099;53.922;10.728;2022-10-16T23:28:10;10.90;99.90
14049;DHT22;7099;53.922;10.728;2022-10-16T23:32:35;11.00;99.90
14049;DHT22;7099;53.922;10.728;2022-10-16T23:37:00;11.00;99.90
14049;DHT22;7099;53.922;10.728;2022-10-16T23:41:27;11.00;99.90
14049;DHT22;7099;53.922;10.728;2022-10-16T23:45:52;11.00;99.90
14049;DHT22;7099;53.922;10.728;2022-10-16T23:50:17;11.00;99.90
14049;DHT22;7099;53.922;10.728;2022-10-16T23:54:43;11.00;99.90
14049;DHT22;7099;53.922;10.728;2022-10-16T23:59:08;11.00;99.90
